This is the latest recevied weather packets stored in our database for station/object DB0LHR-6. If no packets are shown the sender has not sent any weather packets the latest 10 day(s).
| Time | Temp. | Humidity | Pressure | Rain* | Wind** | Luminosity | Snow |
|---|---|---|---|---|---|---|---|
| 1777725975 | 30.56° C | 18% | 1019 hPa | 0 mm | - | - | - |
| 1777725075 | 30° C | 18% | 1019 hPa | 0 mm | - | - | - |
| 1777724176 | 30° C | 18% | 1019 hPa | 0 mm | - | - | - |
| 1777723275 | 29.44° C | 19% | 1019 hPa | 0 mm | - | - | - |
| 1777722375 | 29.44° C | 19% | 1020 hPa | 0 mm | - | - | - |
| 1777721475 | 28.33° C | 19% | 1020 hPa | 0 mm | - | - | - |
| 1777720575 | 28.33° C | 19% | 1020 hPa | 0 mm | - | - | - |
| 1777719675 | 28.33° C | 19% | 1020 hPa | 0 mm | - | - | - |
| 1777718775 | 27.78° C | 19% | 1020 hPa | 0 mm | - | - | - |
| 1777717875 | 27.78° C | 20% | 1021 hPa | 0 mm | - | - | - |
| 1777716975 | 27.22° C | 20% | 1021 hPa | 0 mm | - | - | - |
| 1777716075 | 26.67° C | 20% | 1021 hPa | 0 mm | - | - | - |
| 1777715175 | 26.11° C | 22% | 1021 hPa | 0 mm | - | - | - |
| 1777714275 | 25.56° C | 23% | 1021 hPa | 0 mm | - | - | - |
| 1777713375 | 24.44° C | 22% | 1021 hPa | 0 mm | - | - | - |
| 1777712475 | 24.44° C | 23% | 1022 hPa | 0 mm | - | - | - |
| 1777711575 | 22.78° C | 25% | 1022 hPa | 0 mm | - | - | - |
| 1777710675 | 21.67° C | 27% | 1022 hPa | 0 mm | - | - | - |
| 1777709775 | 21.11° C | 28% | 1022 hPa | 0 mm | - | - | - |
| 1777708875 | 21.67° C | 24% | 1022 hPa | 0 mm | - | - | - |
| 1777707975 | 20.56° C | 25% | 1022 hPa | 0 mm | - | - | - |
| 1777707075 | 19.44° C | 31% | 1022 hPa | 0 mm | - | - | - |
| 1777706175 | 18.33° C | 32% | 1022 hPa | 0 mm | - | - | - |
| 1777705275 | 17.22° C | 33% | 1022 hPa | 0 mm | - | - | - |
| 1777704375 | 16.11° C | 34% | 1022 hPa | 0 mm | - | - | - |
* Rain latest 24 hours (hover to see other rain measurements)
** Current wind speed in m/s (hover to see current wind gust speed)